createdAt,value
2024-03-06T00:02:08.447Z,8.40
2024-03-06T00:04:35.895Z,8.13
2024-03-06T00:07:03.249Z,8.65
2024-03-06T00:09:30.696Z,7.53
2024-03-06T00:11:58.292Z,8.35
2024-03-06T00:14:26.028Z,7.68
2024-03-06T00:16:53.680Z,8.25
2024-03-06T00:19:21.728Z,8.15
2024-03-06T00:21:49.003Z,7.82
2024-03-06T00:24:16.254Z,7.97
2024-03-06T00:26:43.607Z,8.52
2024-03-06T00:29:11.111Z,8.45
2024-03-06T00:31:38.518Z,7.90
2024-03-06T00:34:05.807Z,9.05
2024-03-06T00:36:33.111Z,10.15
2024-03-06T00:39:00.425Z,9.38
2024-03-06T00:41:27.651Z,9.48
2024-03-06T00:43:54.942Z,9.25
2024-03-06T00:46:22.307Z,7.85
2024-03-06T00:48:49.626Z,10.10
2024-03-06T00:51:16.862Z,9.70
2024-03-06T00:53:44.132Z,9.52
2024-03-06T00:56:11.477Z,10.95
2024-03-06T00:58:38.805Z,11.32
2024-03-06T01:01:06.134Z,10.27
2024-03-06T01:03:33.361Z,10.40
2024-03-06T01:06:00.790Z,11.02
2024-03-06T01:08:28.030Z,10.63
2024-03-06T01:10:55.295Z,10.90
2024-03-06T01:13:22.604Z,10.27
2024-03-06T01:15:49.899Z,11.25
2024-03-06T01:18:17.134Z,10.38
2024-03-06T01:20:44.442Z,11.48
2024-03-06T01:23:11.868Z,8.68
2024-03-06T01:25:39.205Z,9.65
2024-03-06T01:28:06.574Z,10.13
2024-03-06T01:30:33.897Z,12.18
2024-03-06T01:33:01.171Z,12.18
2024-03-06T01:35:28.471Z,8.98
2024-03-06T01:37:55.822Z,10.07
2024-03-06T01:40:23.146Z,10.95
2024-03-06T01:42:50.493Z,10.20
2024-03-06T01:45:17.851Z,8.52
2024-03-06T01:47:45.123Z,9.38
2024-03-06T01:50:13.037Z,11.95
2024-03-06T01:52:40.350Z,11.75
2024-03-06T01:55:07.894Z,11.45
2024-03-06T01:57:35.588Z,9.77
2024-03-06T02:00:04.054Z,11.90
2024-03-06T02:02:32.125Z,10.10
2024-03-06T02:05:01.232Z,8.93
2024-03-06T02:07:28.784Z,11.07
2024-03-06T02:09:56.124Z,11.35
2024-03-06T03:43:23.220Z,20.25
2024-03-06T03:45:50.486Z,17.10
2024-03-06T03:48:17.761Z,17.40
2024-03-06T03:50:46.002Z,17.33
2024-03-06T03:53:13.325Z,17.33
2024-03-06T03:55:41.152Z,16.90
2024-03-06T03:58:08.420Z,18.38
2024-03-06T04:00:35.729Z,17.80
2024-03-06T04:03:03.567Z,20.85
2024-03-06T04:05:30.857Z,19.83
2024-03-06T04:07:58.180Z,18.08
2024-03-06T04:10:25.458Z,18.67
2024-03-06T04:12:52.714Z,18.70
2024-03-06T04:15:20.396Z,20.20
2024-03-06T04:17:47.673Z,21.45
2024-03-06T04:20:16.489Z,20.70
2024-03-06T04:22:43.821Z,19.92
2024-03-06T04:25:11.146Z,20.60
2024-03-06T04:27:38.444Z,19.80
2024-03-06T04:30:05.818Z,20.00
2024-03-06T04:32:33.541Z,19.08
2024-03-06T04:35:01.035Z,19.65
2024-03-06T04:37:30.487Z,19.83
2024-03-06T04:39:57.931Z,20.52
2024-03-06T04:42:25.234Z,19.95
2024-03-06T04:44:52.641Z,21.08
2024-03-06T04:47:20.450Z,22.88
2024-03-06T04:49:47.839Z,20.13
2024-03-06T04:52:15.105Z,19.58
2024-03-06T04:54:42.382Z,20.92
2024-03-06T04:57:09.659Z,20.48
2024-03-06T04:59:37.448Z,20.75
2024-03-06T05:02:04.785Z,20.30
2024-03-06T05:59:29.930Z,20.40
2024-03-06T06:01:57.576Z,20.13
2024-03-06T06:04:24.877Z,20.58
2024-03-06T06:06:52.145Z,19.65
2024-03-06T06:09:19.518Z,21.02
2024-03-06T06:11:46.888Z,21.15
2024-03-06T06:14:14.221Z,19.25
2024-03-06T06:16:42.085Z,21.63
2024-03-06T06:19:09.536Z,21.02
2024-03-06T06:21:37.444Z,21.05
2024-03-06T06:24:04.907Z,20.77
2024-03-06T06:26:32.239Z,22.13
2024-03-06T06:28:59.607Z,20.73
2024-03-06T06:31:27.914Z,21.58
2024-03-06T06:33:55.651Z,20.75
2024-03-06T06:36:23.199Z,21.85
2024-03-06T06:38:50.746Z,20.90
2024-03-06T06:41:18.026Z,20.38
2024-03-06T06:43:45.396Z,21.75
2024-03-06T06:46:12.713Z,23.23
2024-03-06T06:48:40.035Z,24.40
2024-03-06T06:51:07.310Z,21.00
2024-03-06T06:53:34.819Z,21.33
2024-03-06T06:56:02.296Z,22.77
2024-03-06T06:58:29.681Z,22.98
2024-03-06T07:00:57.038Z,23.95
2024-03-06T07:03:30.578Z,21.40
2024-03-06T07:05:58.306Z,23.83
2024-03-06T07:08:25.564Z,19.15
2024-03-06T07:10:55.967Z,22.75
2024-03-06T07:13:23.503Z,25.98
2024-03-06T07:15:50.756Z,26.00
2024-03-06T07:18:18.121Z,25.17
2024-03-06T07:20:45.539Z,27.42
2024-03-06T07:23:12.870Z,24.92
2024-03-06T07:25:40.656Z,22.98
2024-03-06T07:28:07.946Z,28.95
2024-03-06T07:30:35.765Z,26.95
2024-03-06T07:33:03.362Z,22.10
2024-03-06T07:35:30.720Z,25.83
2024-03-06T07:37:58.261Z,26.17
2024-03-06T07:40:26.323Z,23.45
2024-03-06T07:42:53.712Z,21.08
2024-03-06T07:45:21.661Z,25.23
2024-03-06T07:47:49.761Z,26.23
2024-03-06T07:50:20.567Z,26.08
2024-03-06T07:52:48.311Z,25.85
2024-03-06T07:55:15.580Z,24.67
2024-03-06T07:57:46.244Z,23.85
2024-03-06T08:00:20.957Z,25.55
2024-03-06T08:02:51.511Z,25.05
2024-03-06T08:05:19.057Z,23.73
2024-03-06T08:07:47.151Z,22.40
2024-03-06T08:10:14.960Z,27.90
2024-03-06T08:12:42.866Z,24.63
2024-03-06T08:15:11.085Z,26.75
2024-03-06T08:17:38.502Z,26.67
2024-03-06T08:20:09.048Z,26.17
2024-03-06T08:22:39.632Z,28.60
2024-03-06T08:25:06.960Z,17.67
2024-03-06T08:27:34.172Z,29.45
2024-03-06T08:30:01.543Z,25.95
2024-03-06T08:32:30.303Z,28.45
2024-03-06T08:34:57.699Z,28.10
2024-03-06T08:37:25.021Z,27.00
2024-03-06T08:39:52.246Z,27.77
2024-03-06T08:42:19.741Z,27.90
2024-03-06T08:44:47.020Z,27.63
2024-03-06T08:47:14.450Z,26.75
2024-03-06T08:49:42.320Z,26.80
2024-03-06T08:52:11.086Z,27.95
2024-03-06T08:54:38.325Z,24.77
2024-03-06T08:57:05.596Z,21.92
2024-03-06T08:59:33.169Z,25.20
2024-03-06T09:02:01.695Z,26.85
2024-03-06T09:04:29.970Z,25.88
2024-03-06T09:06:57.240Z,25.67
2024-03-06T09:09:24.435Z,26.70
2024-03-06T09:11:51.783Z,26.75
2024-03-06T09:14:19.144Z,25.77
2024-03-06T09:16:46.374Z,26.13
2024-03-06T09:19:16.485Z,18.00
2024-03-06T09:21:45.405Z,24.55
2024-03-06T09:24:12.654Z,18.45
2024-03-06T09:26:40.079Z,23.73
2024-03-06T09:29:07.509Z,21.30
2024-03-06T09:31:34.908Z,24.58
2024-03-06T09:34:02.129Z,22.60
2024-03-06T09:36:29.482Z,25.00
2024-03-06T09:38:57.039Z,24.13
2024-03-06T09:41:24.324Z,22.00
2024-03-06T09:43:51.593Z,19.10
2024-03-06T09:46:18.949Z,23.83
2024-03-06T09:48:46.696Z,23.13
2024-03-06T09:51:14.903Z,19.80
2024-03-06T09:53:42.371Z,16.25
2024-03-06T09:56:10.214Z,19.15
2024-03-06T09:58:37.483Z,13.07
2024-03-06T10:01:05.756Z,18.83
2024-03-06T10:03:33.016Z,16.02
2024-03-06T10:06:03.118Z,17.80
2024-03-06T10:08:33.875Z,16.48
2024-03-06T10:11:01.232Z,18.02
2024-03-06T10:13:29.033Z,14.50
2024-03-06T10:15:56.331Z,12.23
2024-03-06T10:18:23.632Z,16.98
2024-03-06T10:20:50.910Z,16.20
2024-03-06T10:23:19.353Z,15.20
2024-03-06T10:25:46.828Z,13.55
2024-03-06T10:28:14.091Z,12.82
2024-03-06T10:30:45.164Z,15.35
2024-03-06T10:33:12.562Z,14.95
2024-03-06T10:35:39.912Z,14.05
2024-03-06T10:38:07.378Z,13.10
2024-03-06T10:40:34.693Z,14.15
2024-03-06T10:43:02.873Z,12.82
2024-03-06T10:45:30.059Z,11.90
2024-03-06T10:47:57.557Z,11.75
2024-03-06T10:50:24.822Z,12.55
2024-03-06T10:52:52.115Z,12.68
2024-03-06T10:55:19.346Z,12.25
2024-03-06T10:57:48.006Z,10.70
2024-03-06T11:00:20.095Z,11.70
2024-03-06T11:02:47.436Z,9.18
2024-03-06T11:05:14.736Z,11.75
2024-03-06T11:07:42.244Z,12.93
2024-03-06T11:10:16.536Z,14.60
2024-03-06T11:12:49.570Z,13.93
2024-03-06T11:15:22.027Z,14.27
2024-03-06T11:17:50.391Z,14.88
2024-03-06T11:20:18.085Z,14.50
2024-03-06T11:22:45.476Z,14.77
2024-03-06T11:25:12.773Z,11.05
2024-03-06T11:27:40.062Z,14.15
2024-03-06T11:30:15.146Z,13.23
2024-03-06T11:32:42.648Z,12.70
2024-03-06T11:35:10.163Z,10.13
2024-03-06T11:37:39.237Z,12.00
2024-03-06T11:40:09.632Z,8.60
2024-03-06T11:42:45.987Z,13.48
2024-03-06T11:45:13.252Z,11.77
2024-03-06T11:47:41.832Z,9.88
2024-03-06T11:50:10.217Z,7.85
2024-03-06T11:52:37.555Z,7.60
2024-03-06T11:55:06.348Z,7.32
2024-03-06T11:57:33.598Z,7.78
2024-03-06T12:00:00.908Z,5.93
2024-03-06T12:02:28.236Z,10.50
2024-03-06T12:04:55.574Z,10.70
2024-03-06T12:07:22.811Z,11.35
2024-03-06T12:09:50.128Z,11.25
2024-03-06T12:12:17.677Z,11.00
2024-03-06T12:14:45.243Z,12.30
2024-03-06T12:17:14.403Z,12.25
2024-03-06T12:19:41.994Z,12.05
2024-03-06T12:22:09.564Z,11.13
2024-03-06T12:24:36.911Z,11.73
2024-03-06T12:27:04.669Z,12.45
2024-03-06T12:29:33.310Z,11.27
2024-03-06T12:32:00.716Z,10.65
2024-03-06T12:34:28.115Z,11.93
2024-03-06T12:36:55.346Z,7.55
2024-03-06T12:39:24.434Z,9.80
2024-03-06T12:41:52.061Z,10.70
2024-03-06T12:44:21.947Z,11.90
2024-03-06T12:46:50.060Z,10.75
2024-03-06T12:49:17.287Z,10.75
2024-03-06T12:51:45.172Z,6.07
2024-03-06T12:54:12.565Z,9.82
2024-03-06T12:56:40.071Z,9.48
2024-03-06T12:59:07.374Z,9.77
2024-03-06T13:01:34.723Z,10.93
2024-03-06T13:04:06.454Z,10.20
2024-03-06T13:06:34.847Z,9.85
2024-03-06T13:09:02.097Z,7.78
2024-03-06T13:11:29.385Z,8.57
2024-03-06T13:13:56.656Z,9.73
2024-03-06T13:16:26.427Z,9.73
2024-03-06T13:18:58.423Z,7.20
2024-03-06T13:21:25.820Z,8.73
2024-03-06T13:23:53.060Z,6.97
2024-03-06T13:26:20.372Z,6.45
2024-03-06T13:28:47.645Z,7.22
2024-03-06T13:31:14.944Z,7.47
2024-03-06T13:33:42.255Z,8.73
2024-03-06T13:36:09.601Z,6.95
2024-03-06T13:38:36.980Z,7.65
2024-03-06T13:41:04.762Z,7.60
2024-03-06T13:43:32.865Z,7.07
2024-03-06T13:46:00.324Z,6.57
2024-03-06T13:48:27.642Z,5.22
2024-03-06T13:50:55.089Z,8.60
2024-03-06T13:53:22.343Z,9.07
2024-03-06T13:55:49.663Z,9.95
2024-03-06T13:58:16.953Z,10.25
2024-03-06T14:00:45.166Z,10.02
2024-03-06T14:03:15.494Z,9.85
2024-03-06T14:05:42.809Z,9.95
2024-03-06T14:08:13.187Z,9.27
2024-03-06T14:10:40.756Z,9.15
2024-03-06T14:13:09.768Z,8.07
2024-03-06T14:15:39.240Z,8.10
2024-03-06T14:18:07.934Z,8.60
2024-03-06T14:20:35.387Z,6.38
2024-03-06T14:23:02.894Z,9.40
2024-03-06T14:25:30.669Z,8.50
2024-03-06T14:27:58.471Z,8.20
2024-03-06T14:30:25.848Z,8.85
2024-03-06T14:32:53.241Z,7.57
2024-03-06T14:35:20.660Z,7.25
2024-03-06T14:37:49.853Z,6.70
2024-03-06T14:40:17.079Z,5.95
2024-03-06T14:42:45.292Z,5.18
2024-03-06T14:45:12.775Z,6.82
2024-03-06T14:47:40.105Z,4.80
2024-03-06T14:50:07.487Z,4.78
2024-03-06T14:52:35.910Z,4.30
2024-03-06T14:55:04.405Z,4.78
2024-03-06T14:57:31.689Z,4.47
2024-03-06T14:59:59.754Z,4.80
2024-03-06T15:02:27.278Z,5.35
2024-03-06T15:04:54.531Z,5.50
2024-03-06T15:07:22.254Z,5.03
2024-03-06T15:09:49.561Z,5.93
2024-03-06T15:12:17.309Z,6.60
2024-03-06T15:14:47.200Z,6.45
2024-03-06T15:17:17.353Z,6.57
2024-03-06T15:19:44.655Z,6.85
2024-03-06T15:22:12.158Z,5.57
2024-03-06T15:24:39.543Z,4.82
2024-03-06T15:27:06.822Z,5.22
2024-03-06T15:29:34.241Z,6.07
2024-03-06T15:32:01.795Z,5.13
2024-03-06T15:34:29.095Z,5.40
2024-03-06T15:36:57.807Z,5.35
2024-03-06T15:39:25.268Z,5.20
2024-03-06T15:41:52.701Z,4.90
2024-03-06T15:44:20.139Z,5.80
2024-03-06T15:46:55.262Z,4.50
2024-03-06T15:49:30.948Z,5.68
2024-03-06T15:51:58.260Z,4.95
2024-03-06T15:54:25.679Z,6.20
2024-03-06T15:56:53.054Z,5.57
2024-03-06T15:59:20.566Z,5.10
2024-03-06T16:01:47.966Z,4.50
2024-03-06T16:04:15.512Z,4.18
2024-03-06T16:06:43.033Z,4.93
2024-03-06T16:09:15.526Z,4.72
2024-03-06T16:11:43.829Z,7.20
2024-03-06T16:14:14.498Z,4.88
2024-03-06T16:16:42.331Z,3.72
2024-03-06T16:19:09.632Z,1.95
2024-03-06T16:21:38.205Z,2.33
2024-03-06T16:24:09.517Z,1.77
2024-03-06T16:29:22.174Z,1.73
2024-03-06T16:31:50.952Z,1.65
2024-03-06T16:34:25.516Z,1.60
2024-03-06T16:36:53.367Z,1.77
2024-03-06T16:39:21.962Z,2.00
2024-03-06T16:41:50.389Z,2.40
2024-03-06T16:44:17.732Z,1.90
2024-03-06T16:46:45.074Z,2.78
2024-03-06T16:49:13.812Z,2.70
2024-03-06T16:51:41.139Z,3.20
2024-03-06T16:54:08.368Z,1.92
2024-03-06T16:56:35.801Z,2.67
2024-03-06T16:59:03.428Z,3.08
2024-03-06T17:01:31.473Z,3.10
2024-03-06T17:03:58.707Z,3.33
2024-03-06T17:06:26.019Z,3.90
2024-03-06T17:08:53.334Z,3.10
2024-03-06T17:11:20.783Z,3.65
2024-03-06T17:13:49.648Z,4.07
2024-03-06T17:16:17.957Z,5.10
2024-03-06T17:18:45.326Z,2.75
2024-03-06T17:21:12.703Z,3.15
2024-03-06T17:23:40.015Z,2.50
2024-03-06T17:26:07.884Z,2.60
2024-03-06T17:28:35.205Z,3.13
2024-03-06T17:31:02.469Z,2.05
2024-03-06T17:33:29.855Z,2.67
2024-03-06T17:35:58.521Z,1.90
2024-03-06T17:38:27.378Z,2.22
2024-03-06T17:40:54.778Z,2.25
2024-03-06T17:43:22.892Z,2.45
2024-03-06T17:45:50.428Z,1.40
2024-03-06T17:48:17.783Z,1.70
2024-03-06T17:50:47.525Z,2.00
2024-03-06T17:53:15.468Z,3.40
2024-03-06T17:55:42.823Z,2.03
2024-03-06T17:58:10.247Z,2.15
2024-03-06T18:00:38.731Z,2.20
2024-03-06T18:03:06.146Z,3.35
2024-03-06T18:05:33.552Z,1.45
2024-03-06T18:08:00.948Z,1.33
2024-03-06T18:10:32.971Z,1.70
2024-03-06T18:13:08.434Z,1.42
2024-03-06T18:15:35.775Z,1.40
2024-03-06T18:18:03.746Z,1.95
2024-03-06T18:20:31.302Z,1.42
2024-03-06T18:22:58.554Z,1.48
2024-03-06T18:25:30.008Z,1.52
2024-03-06T18:27:57.571Z,1.50
2024-03-06T18:30:24.918Z,1.58
2024-03-06T18:32:52.316Z,1.48
2024-03-06T18:35:19.676Z,1.60
2024-03-06T18:37:47.218Z,2.85
2024-03-06T18:40:14.561Z,2.95
2024-03-06T18:42:42.316Z,4.93
2024-03-06T18:45:09.976Z,4.57
2024-03-06T18:47:40.339Z,2.88
2024-03-06T18:50:08.765Z,1.83
2024-03-06T18:52:36.040Z,1.80
2024-03-06T18:55:04.245Z,2.50
2024-03-06T18:57:33.575Z,5.13
2024-03-06T19:00:03.564Z,5.57
2024-03-06T19:02:32.504Z,2.67
2024-03-06T19:05:02.087Z,2.53
2024-03-06T19:07:34.967Z,2.05
2024-03-06T19:10:06.697Z,1.83
2024-03-06T19:12:34.358Z,2.25
2024-03-06T19:15:09.540Z,3.10
2024-03-06T19:17:40.341Z,2.45
2024-03-06T19:20:09.488Z,2.40
2024-03-06T19:22:38.252Z,2.80
2024-03-06T19:25:07.049Z,2.42
2024-03-06T19:27:36.973Z,1.63
2024-03-06T19:30:05.002Z,1.63
2024-03-06T19:35:11.598Z,1.05
2024-03-06T19:37:38.947Z,1.65
2024-03-06T19:40:09.768Z,1.65
2024-03-06T19:42:37.323Z,1.90
2024-03-06T19:45:05.921Z,1.65
2024-03-06T19:47:33.671Z,1.77
2024-03-06T19:50:01.035Z,1.90
